Time;durP1;ratioP1;P1;durP2;ratioP2;P2;SDS_P1;SDS_P2;PMS_P1;PMS_P2;Temp;Humidity;BMP_temperature;BMP_pressure;BME280_temperature;BME280_humidity;BME280_pressure;Samples;Min_cycle;Max_cycle;Signal;HPM_P1;HPM_P2
2022/12/19 10:38:50;;;;;;;38.67;19.98;;;7.50;54.40;;;;;;5014456;28;20090;-68
2022/12/19 10:41:29;;;;;;;37.13;20.38;;;7.60;54.10;;;;;;5010277;28;20046;-69
2022/12/19 10:44:04;;;;;;;36.53;19.92;;;7.70;53.80;;;;;;5014372;28;20022;-76
2022/12/19 10:46:30;;;;;;;42.25;21.15;;;7.80;53.70;;;;;;5014386;28;20038;-77
2022/12/19 10:48:56;;;;;;;49.63;21.63;;;7.90;53.20;;;;;;4997135;28;20033;-77
2022/12/19 10:51:27;;;;;;;43.78;20.60;;;8.00;52.60;;;;;;5014135;28;20415;-80
2022/12/19 10:53:55;;;;;;;41.60;21.20;;;8.00;52.20;;;;;;5015396;28;20030;-74
2022/12/19 10:56:25;;;;;;;36.20;20.80;;;8.00;51.80;;;;;;4988177;28;20384;-79
2022/12/19 10:58:58;;;;;;;47.70;21.88;;;7.90;51.80;;;;;;5014399;28;20038;-77
2022/12/19 11:01:39;;;;;;;40.88;21.05;;;8.00;52.30;;;;;;5014782;28;20092;-79
2022/12/19 11:04:25;;;;;;;40.30;20.42;;;8.00;52.10;;;;;;5014197;28;20041;-75
2022/12/19 11:07:18;;;;;;;46.55;20.60;;;8.00;52.10;;;;;;5012917;28;20038;-70
2022/12/19 11:09:44;;;;;;;47.45;21.85;;;8.00;52.20;;;;;;5006529;28;20511;-69
2022/12/19 11:12:17;;;;;;;41.75;20.42;;;8.00;52.10;;;;;;5014867;28;20030;-70
2022/12/19 11:15:08;;;;;;;43.22;20.60;;;8.10;52.20;;;;;;4999861;28;20394;-71
2022/12/19 11:17:36;;;;;;;42.30;21.92;;;8.10;51.90;;;;;;5019040;28;20038;-73
2022/12/19 11:20:22;;;;;;;54.22;24.33;;;8.10;51.50;;;;;;4997964;28;20481;-73
2022/12/19 11:22:59;;;;;;;40.97;21.60;;;8.10;51.00;;;;;;4994428;28;20395;-70
2022/12/19 11:25:57;;;;;;;36.40;19.92;;;8.10;50.90;;;;;;4976849;28;20471;-69
2022/12/19 11:28:32;;;;;;;35.63;18.48;;;8.00;50.90;;;;;;4981601;28;20039;-69
2022/12/19 11:31:02;;;;;;;34.47;18.83;;;8.00;51.30;;;;;;5004152;28;20696;-73
2022/12/19 11:33:28;;;;;;;39.22;19.88;;;8.00;51.40;;;;;;5013622;28;20080;-68
2022/12/19 11:36:01;;;;;;;44.70;20.60;;;8.00;51.10;;;;;;5013903;28;20026;-69
2022/12/19 11:38:47;;;;;;;39.92;19.98;;;8.00;50.70;;;;;;5013580;28;20033;-69
2022/12/19 11:41:31;;;;;;;36.50;19.27;;;8.00;50.60;;;;;;5013541;28;20189;-70
2022/12/19 11:44:33;;;;;;;36.80;18.80;;;7.90;50.60;;;;;;5013432;28;20037;-69
2022/12/19 11:47:19;;;;;;;63.88;19.83;;;7.90;51.00;;;;;;5013163;28;20088;-66
2022/12/19 11:49:52;;;;;;;35.42;19.30;;;7.90;50.60;;;;;;5013016;28;20104;-70
2022/12/19 11:52:24;;;;;;;36.88;18.23;;;7.90;50.20;;;;;;5013102;28;20026;-68
2022/12/19 11:55:02;;;;;;;51.28;20.33;;;7.90;50.50;;;;;;5007348;28;20035;-65
2022/12/19 11:57:27;;;;;;;35.80;17.73;;;7.90;50.80;;;;;;4993686;28;20034;-70
2022/12/19 11:59:54;;;;;;;40.47;20.23;;;7.90;50.80;;;;;;4993552;28;20507;-68
2022/12/19 12:02:34;;;;;;;43.25;19.33;;;8.00;51.60;;;;;;4993507;28;20042;-69
2022/12/19 12:05:33;;;;;;;37.53;19.23;;;8.00;50.90;;;;;;4982733;28;20034;-71
2022/12/19 12:08:26;;;;;;;35.42;19.23;;;8.00;50.50;;;;;;4991469;28;20047;-78
2022/12/19 12:11:24;;;;;;;51.50;19.65;;;8.10;50.70;;;;;;4992493;28;20053;-75
2022/12/19 12:14:01;;;;;;;50.05;19.45;;;8.20;50.70;;;;;;4993480;28;20039;-78
2022/12/19 12:16:55;;;;;;;72.68;21.35;;;8.20;50.60;;;;;;4993452;28;20121;-74
2022/12/19 12:19:25;;;;;;;;;;;8.30;50.80;;;;;;4993434;28;20391;-77
2022/12/19 12:22:05;;;;;;;37.42;17.85;;;8.40;51.60;;;;;;5013111;28;19949;-81
2022/12/19 12:25:04;;;;;;;43.83;20.10;;;8.50;50.80;;;;;;4995199;28;20036;-76
2022/12/19 12:27:39;;;;;;;48.95;19.60;;;8.50;50.10;;;;;;5012773;28;20030;-72
2022/12/19 12:30:11;;;;;;;42.28;18.63;;;8.50;49.90;;;;;;5016887;28;20392;-71
2022/12/19 12:33:07;;;;;;;30.67;17.77;;;8.50;49.70;;;;;;5000021;28;20029;-76
2022/12/19 12:35:38;;;;;;;43.53;17.23;;;8.50;49.90;;;;;;4997856;28;20061;-76
2022/12/19 12:38:17;;;;;;;32.47;18.02;;;8.60;50.00;;;;;;4985548;28;20031;-78
2022/12/19 12:40:43;;;;;;;50.50;18.42;;;8.60;50.00;;;;;;5034088;28;20046;-73
2022/12/19 12:43:28;;;;;;;40.40;18.27;;;8.70;50.10;;;;;;5018748;28;20041;-71
2022/12/19 12:45:54;;;;;;;39.42;18.75;;;8.70;49.90;;;;;;5033436;28;20234;-72
2022/12/19 12:48:46;;;;;;;41.15;19.05;;;8.70;49.70;;;;;;5013990;28;20117;-76
2022/12/19 12:51:12;;;;;;;33.42;18.27;;;8.70;49.60;;;;;;5027157;28;20387;-71
2022/12/19 12:53:44;;;;;;;34.20;17.55;;;8.80;50.10;;;;;;5034507;28;20040;-75
2022/12/19 12:56:15;;;;;;;32.83;18.02;;;8.90;50.10;;;;;;5029724;28;20025;-74
2022/12/19 12:58:52;;;;;;;47.03;19.02;;;8.90;49.80;;;;;;5018531;28;20029;-65
2022/12/19 13:01:27;;;;;;;35.22;18.15;;;9.00;49.70;;;;;;5029643;28;20116;-73
2022/12/19 13:04:09;;;;;;;34.47;18.35;;;9.00;49.60;;;;;;5099782;22;20065;-72
2022/12/19 13:06:41;;;;;;;42.95;18.45;;;9.00;49.30;;;;;;5043828;28;20029;-73
2022/12/19 13:09:22;;;;;;;36.42;18.13;;;9.00;49.40;;;;;;5038078;28;20037;-75
2022/12/19 13:14:47;;;;;;;40.30;19.63;;;8.90;48.90;;;;;;5055178;28;20078;-74
2022/12/19 13:17:48;;;;;;;31.85;18.17;;;8.90;49.20;;;;;;5038447;28;20087;-72
2022/12/19 13:20:51;;;;;;;33.55;17.25;;;8.80;49.40;;;;;;5010043;28;20120;-71
2022/12/19 13:23:25;;;;;;;65.35;20.38;;;8.70;49.40;;;;;;5040515;28;20037;-71
2022/12/19 13:25:54;;;;;;;36.90;19.27;;;8.70;49.30;;;;;;5018668;28;20037;-71
2022/12/19 13:28:20;;;;;;;41.58;20.13;;;8.60;49.40;;;;;;5036127;28;20041;-71
2022/12/19 13:31:01;;;;;;;48.08;18.65;;;8.60;49.60;;;;;;5030643;28;20358;-69
2022/12/19 13:33:52;;;;;;;43.67;19.77;;;8.50;49.70;;;;;;5017921;28;20033;-70
2022/12/19 13:36:44;;;;;;;34.85;17.70;;;8.40;49.70;;;;;;5018249;28;20049;-69
2022/12/19 13:39:30;;;;;;;40.33;20.05;;;8.40;49.90;;;;;;5018292;28;20397;-71
2022/12/19 13:45:16;;;;;;;40.33;19.33;;;8.30;50.30;;;;;;5035973;28;20072;-73
2022/12/19 13:47:44;;;;;;;36.90;20.02;;;8.30;50.40;;;;;;5036040;28;20033;-71
2022/12/19 13:50:40;;;;;;;35.47;19.25;;;8.20;50.40;;;;;;5035691;28;20033;-72
2022/12/19 13:53:22;;;;;;;39.42;20.75;;;8.10;50.70;;;;;;5017980;28;20037;-72
2022/12/19 13:55:52;;;;;;;43.85;20.58;;;8.10;50.80;;;;;;5021476;28;20041;-75
2022/12/19 13:58:25;;;;;;;41.03;18.98;;;8.10;50.90;;;;;;5025889;28;20389;-70
2022/12/19 14:00:52;;;;;;;51.70;21.75;;;8.10;51.10;;;;;;5040990;28;20033;-70
2022/12/19 14:03:25;;;;;;;37.38;20.55;;;8.10;51.10;;;;;;5032941;28;20049;-71
2022/12/19 14:06:07;;;;;;;43.50;20.87;;;8.10;51.10;;;;;;5035170;28;20495;-70
2022/12/19 14:08:36;;;;;;;38.20;20.73;;;8.00;51.00;;;;;;5051101;28;20044;-70
2022/12/19 14:11:09;;;;;;;38.22;20.40;;;8.00;51.00;;;;;;5044720;28;20072;-70
2022/12/19 14:16:26;;;;;;;35.40;18.88;;;7.90;51.30;;;;;;5035300;28;20045;-71
2022/12/19 14:18:55;;;;;;;41.22;19.92;;;7.90;51.50;;;;;;5035120;28;20033;-70
2022/12/19 14:21:26;;;;;;;33.22;17.40;;;7.90;51.60;;;;;;5035468;28;20087;-71
2022/12/19 14:24:33;;;;;;;45.95;20.55;;;7.90;51.70;;;;;;5035474;28;20045;-71
2022/12/19 14:27:07;;;;;;;32.10;18.40;;;7.80;51.40;;;;;;5049201;28;20110;-71
2022/12/19 14:29:52;;;;;;;40.25;20.08;;;7.80;51.40;;;;;;5031039;28;20052;-73
2022/12/19 14:32:23;;;;;;;32.28;17.75;;;7.70;51.40;;;;;;5020362;28;20037;-75
2022/12/19 14:34:50;;;;;;;35.42;19.45;;;7.60;51.50;;;;;;5020909;28;20526;-70
2022/12/19 14:37:34;;;;;;;35.50;20.33;;;7.60;51.60;;;;;;5037782;28;20408;-71
2022/12/19 14:40:17;;;;;;;41.00;20.48;;;7.50;51.80;;;;;;5034918;28;20033;-71
2022/12/19 14:45:40;;;;;;;36.38;19.15;;;7.50;52.60;;;;;;5035198;28;20540;-70
2022/12/19 14:48:27;;;;;;;37.67;19.98;;;7.40;52.00;;;;;;5023681;28;20453;-70
2022/12/19 14:51:08;;;;;;;43.05;20.73;;;7.30;52.10;;;;;;5034353;28;20128;-73
2022/12/19 14:53:36;;;;;;;35.17;20.05;;;7.10;52.00;;;;;;5035805;28;20049;-74
2022/12/19 14:56:17;;;;;;;44.70;20.52;;;7.10;52.20;;;;;;5035075;28;20037;-74
2022/12/19 14:58:55;;;;;;;40.05;20.58;;;6.90;52.30;;;;;;5034196;28;20037;-75
2022/12/19 15:01:27;;;;;;;42.05;20.77;;;6.80;52.50;;;;;;5034434;28;20049;-77
2022/12/19 15:04:01;;;;;;;42.70;21.55;;;6.70;52.70;;;;;;5048514;28;20140;-71
2022/12/19 15:06:29;;;;;;;39.58;21.17;;;6.60;53.00;;;;;;5053908;28;20477;-72
2022/12/19 15:09:03;;;;;;;49.17;21.63;;;6.50;53.30;;;;;;5052351;28;20033;-73
2022/12/19 15:14:29;;;;;;;42.55;21.30;;;6.20;53.80;;;;;;5041485;28;20083;-72
2022/12/19 15:17:13;;;;;;;41.42;21.02;;;6.10;54.10;;;;;;5036144;28;20037;-74
2022/12/19 15:19:39;;;;;;;56.08;22.88;;;6.00;54.20;;;;;;5036007;28;20037;-75
2022/12/19 15:22:05;;;;;;;43.63;21.23;;;5.90;55.00;;;;;;5035417;28;20044;-75
2022/12/19 15:24:30;;;;;;;49.30;23.63;;;5.80;54.50;;;;;;5033421;28;20041;-78
2022/12/19 15:26:57;;;;;;;39.60;21.63;;;5.80;55.00;;;;;;5021241;28;20049;-76
2022/12/19 15:29:25;;;;;;;46.80;22.65;;;5.80;54.90;;;;;;5043814;28;20040;-72
2022/12/19 15:31:51;;;;;;;39.35;20.85;;;5.70;55.00;;;;;;5027826;28;20037;-72
2022/12/19 15:34:25;;;;;;;43.00;20.58;;;5.70;55.20;;;;;;5020771;28;20124;-71
2022/12/19 15:36:51;;;;;;;;;;;5.60;55.40;;;;;;5037770;28;20028;-74
2022/12/19 15:39:18;;;;;;;38.60;18.95;;;5.70;55.00;;;;;;5034801;28;19905;-73
2022/12/19 15:41:46;;;;;;;36.53;18.25;;;5.60;55.10;;;;;;5016069;28;20064;-71
2022/12/19 15:44:31;;;;;;;39.30;20.25;;;5.60;55.40;;;;;;5033821;28;20029;-74
2022/12/19 15:46:58;;;;;;;36.25;18.77;;;5.50;55.60;;;;;;5016600;28;20137;-75
2022/12/19 15:49:25;;;;;;;39.67;19.88;;;5.50;55.80;;;;;;5042424;28;20073;-73
2022/12/19 15:51:51;;;;;;;34.53;19.67;;;5.50;55.90;;;;;;5016185;28;20044;-71
2022/12/19 15:54:17;;;;;;;39.08;19.50;;;5.50;56.00;;;;;;5035229;28;20465;-75
2022/12/19 15:56:52;;;;;;;41.20;19.90;;;5.50;56.10;;;;;;5035618;28;20103;-75
2022/12/19 15:59:25;;;;;;;37.72;19.73;;;5.50;56.20;;;;;;5035537;28;20075;-74
2022/12/19 16:01:52;;;;;;;38.90;20.58;;;5.50;56.20;;;;;;5034923;28;20025;-74
2022/12/19 16:04:18;;;;;;;41.28;21.60;;;5.60;56.30;;;;;;5034538;28;20133;-74
2022/12/19 16:06:45;;;;;;;40.70;21.15;;;5.60;56.40;;;;;;5025825;28;20059;-75
2022/12/19 16:09:31;;;;;;;43.28;23.35;;;5.60;56.50;;;;;;5033224;28;20037;-71
2022/12/19 16:11:57;;;;;;;49.25;23.02;;;5.60;56.50;;;;;;5033469;28;20065;-72
2022/12/19 16:14:25;;;;;;;37.90;20.48;;;5.60;56.50;;;;;;5015604;28;20034;-71
2022/12/19 16:16:54;;;;;;;46.05;22.27;;;5.50;56.40;;;;;;5033431;28;20037;-74
2022/12/19 16:19:29;;;;;;;39.20;20.55;;;5.50;56.50;;;;;;5019305;28;20075;-74
2022/12/19 16:21:56;;;;;;;41.15;20.83;;;5.50;56.60;;;;;;5016437;28;20064;-74
2022/12/19 16:24:23;;;;;;;40.70;22.10;;;5.50;56.60;;;;;;5036375;28;20104;-71
2022/12/19 16:26:55;;;;;;;37.95;21.15;;;5.50;56.60;;;;;;5035179;28;20480;-72
2022/12/19 16:29:28;;;;;;;38.97;19.83;;;5.60;56.70;;;;;;5052557;28;20079;-74
2022/12/19 16:31:56;;;;;;;32.35;17.85;;;5.60;56.70;;;;;;5025214;28;20042;-74
2022/12/19 16:34:25;;;;;;;37.38;20.33;;;5.60;56.60;;;;;;5033644;28;20073;-73
2022/12/19 16:36:53;;;;;;;40.13;22.38;;;5.60;56.70;;;;;;5023943;28;20033;-71
2022/12/19 16:39:19;;;;;;;42.67;24.17;;;5.60;56.70;;;;;;5035106;28;20044;-74
2022/12/19 16:41:46;;;;;;;51.58;26.63;;;5.60;56.70;;;;;;5054911;28;20029;-77
2022/12/19 16:44:17;;;;;;;54.35;28.25;;;5.60;56.80;;;;;;5034356;28;20038;-73
2022/12/19 16:46:45;;;;;;;58.75;30.77;;;5.60;56.90;;;;;;5025801;28;20038;-74
2022/12/19 16:49:17;;;;;;;52.22;29.17;;;5.60;56.90;;;;;;5049347;28;20045;-74
2022/12/19 16:51:44;;;;;;;58.33;31.33;;;5.60;57.00;;;;;;5041307;28;20773;-73
2022/12/19 16:54:12;;;;;;;60.95;31.42;;;5.60;57.00;;;;;;5037687;28;20119;-74
2022/12/19 16:56:42;;;;;;;60.80;31.25;;;5.60;57.10;;;;;;5027172;28;20507;-80
2022/12/19 16:59:26;;;;;;;55.38;30.02;;;5.60;57.10;;;;;;5044564;28;20037;-74
2022/12/19 17:01:52;;;;;;;55.13;29.95;;;5.60;57.10;;;;;;5022499;28;20041;-75
2022/12/19 17:04:21;;;;;;;56.70;30.25;;;5.60;57.20;;;;;;5015673;28;20048;-75
2022/12/19 17:06:50;;;;;;;50.60;26.60;;;5.50;57.20;;;;;;5041035;28;20041;-75
2022/12/19 17:09:21;;;;;;;54.67;28.08;;;5.50;57.30;;;;;;5045999;28;20041;-74
2022/12/19 17:11:59;;;;;;;47.13;24.48;;;5.60;57.40;;;;;;5014391;28;20030;-74
2022/12/19 17:14:30;;;;;;;55.83;26.27;;;5.50;57.40;;;;;;5036652;28;20034;-75
2022/12/19 17:16:59;;;;;;;45.67;23.30;;;5.50;57.40;;;;;;5046872;28;20362;-73
2022/12/19 17:19:35;;;;;;;51.75;24.95;;;5.50;57.40;;;;;;5018319;28;20040;-77
2022/12/19 17:22:09;;;;;;;48.13;26.33;;;5.50;57.50;;;;;;5021049;28;20069;-75
2022/12/19 17:24:34;;;;;;;49.90;26.80;;;5.50;57.40;;;;;;5025823;28;20115;-75
2022/12/19 17:27:00;;;;;;;43.55;24.63;;;5.50;57.40;;;;;;5033760;28;20568;-76
2022/12/19 17:29:26;;;;;;;56.55;27.33;;;5.50;57.30;;;;;;5048940;28;20107;-73
2022/12/19 17:31:52;;;;;;;65.22;29.88;;;5.50;57.30;;;;;;5027075;28;20071;-75
2022/12/19 17:34:28;;;;;;;64.10;32.58;;;5.40;57.20;;;;;;5021910;28;20037;-73
2022/12/19 17:36:54;;;;;;;51.75;28.05;;;5.40;57.20;;;;;;5034081;28;20120;-72
2022/12/19 17:39:25;;;;;;;52.05;26.27;;;5.40;57.20;;;;;;5036248;28;20032;-76
2022/12/19 17:41:53;;;;;;;54.47;27.67;;;5.40;57.20;;;;;;5047516;28;20091;-72
2022/12/19 17:44:19;;;;;;;48.97;27.00;;;5.40;57.20;;;;;;5021983;28;20539;-75
2022/12/19 17:46:49;;;;;;;54.38;28.65;;;5.40;57.20;;;;;;5027380;28;20044;-77
2022/12/19 17:49:29;;;;;;;53.38;28.25;;;5.30;57.10;;;;;;5025855;28;20037;-72
2022/12/19 17:51:55;;;;;;;59.22;31.45;;;5.30;57.10;;;;;;5046872;28;20029;-74
2022/12/19 17:54:22;;;;;;;57.40;30.67;;;5.30;57.10;;;;;;5019183;28;20381;-79
2022/12/19 17:56:51;;;;;;;57.85;28.80;;;5.30;57.20;;;;;;5018218;28;20041;-74
2022/12/19 17:59:18;;;;;;;59.42;28.95;;;5.30;57.20;;;;;;5017630;28;20033;-75
2022/12/19 18:01:51;;;;;;;52.58;28.33;;;5.20;57.20;;;;;;5041049;28;20037;-73
2022/12/19 18:04:20;;;;;;;60.95;30.02;;;5.20;57.20;;;;;;5037182;28;20484;-71
2022/12/19 18:06:46;;;;;;;56.33;28.90;;;5.20;57.20;;;;;;5037456;28;20076;-73
2022/12/19 18:09:20;;;;;;;64.35;30.65;;;5.20;57.30;;;;;;5037188;28;20131;-72
2022/12/19 18:11:52;;;;;;;60.00;31.10;;;5.20;57.30;;;;;;5032483;28;20492;-73
2022/12/19 18:14:20;;;;;;;58.60;27.33;;;5.10;57.30;;;;;;5029533;28;20495;-73
2022/12/19 18:16:47;;;;;;;51.13;27.30;;;5.10;57.20;;;;;;5053706;28;20037;-75
2022/12/19 18:19:19;;;;;;;54.42;27.55;;;5.10;57.30;;;;;;5038605;28;20033;-74
2022/12/19 18:21:46;;;;;;;62.15;30.27;;;5.10;57.30;;;;;;5020861;28;20393;-76
2022/12/19 18:24:15;;;;;;;66.00;32.55;;;5.00;57.50;;;;;;5028184;28;20037;-75
2022/12/19 18:26:41;;;;;;;59.92;29.73;;;5.00;57.50;;;;;;5035051;28;20458;-76
2022/12/19 18:29:07;;;;;;;69.72;30.50;;;5.00;57.50;;;;;;5022266;28;20037;-73
2022/12/19 18:31:37;;;;;;;59.97;30.05;;;5.00;57.60;;;;;;5027685;28;20065;-75
2022/12/19 18:34:06;;;;;;;62.85;29.63;;;5.00;57.60;;;;;;5023164;28;20045;-77
2022/12/19 18:36:41;;;;;;;110.05;47.70;;;5.00;57.60;;;;;;5028039;28;20041;-71
2022/12/19 18:39:27;;;;;;;64.70;30.88;;;4.90;57.60;;;;;;5043753;28;20104;-71
2022/12/19 18:41:59;;;;;;;139.43;60.35;;;4.90;57.70;;;;;;5022485;28;20037;-72
2022/12/19 18:44:25;;;;;;;77.43;38.00;;;4.90;57.70;;;;;;5042971;28;20070;-72
2022/12/19 18:46:52;;;;;;;48.13;25.98;;;4.90;57.70;;;;;;5038185;28;20045;-73
2022/12/19 18:49:18;;;;;;;40.60;21.65;;;4.90;57.80;;;;;;5040846;28;20037;-73
2022/12/19 18:51:47;;;;;;;46.70;23.00;;;4.90;57.80;;;;;;5040063;28;20040;-73
2022/12/19 18:54:15;;;;;;;47.25;23.50;;;4.90;57.80;;;;;;5031792;28;20128;-72
2022/12/19 18:56:42;;;;;;;45.03;24.17;;;4.90;57.90;;;;;;5016534;28;20072;-77
2022/12/19 18:59:09;;;;;;;49.30;25.17;;;5.00;58.00;;;;;;5034597;28;20034;-72
2022/12/19 19:01:45;;;;;;;46.80;24.23;;;5.00;58.10;;;;;;5034493;28;20033;-72
2022/12/19 19:04:13;;;;;;;44.85;25.40;;;4.90;58.10;;;;;;5016312;28;20057;-73
2022/12/19 19:06:40;;;;;;;48.92;26.38;;;5.00;58.20;;;;;;5034316;28;20044;-70
2022/12/19 19:09:14;;;;;;;55.30;29.00;;;5.00;58.20;;;;;;5035912;28;20095;-76
2022/12/19 19:11:45;;;;;;;57.22;29.70;;;5.00;58.30;;;;;;5035906;28;20094;-71
2022/12/19 19:14:13;;;;;;;52.70;26.13;;;5.00;58.30;;;;;;5032373;28;20133;-72
2022/12/19 19:16:44;;;;;;;51.10;25.52;;;5.00;58.20;;;;;;5016315;28;20038;-74
2022/12/19 19:19:17;;;;;;;50.47;26.70;;;5.00;58.30;;;;;;5034146;28;20120;-73
2022/12/19 19:21:47;;;;;;;46.83;26.92;;;5.00;58.40;;;;;;5050598;28;20099;-71
2022/12/19 19:24:19;;;;;;;43.70;24.73;;;5.00;58.50;;;;;;5035386;28;20037;-71
2022/12/19 19:26:48;;;;;;;44.42;23.65;;;5.00;58.50;;;;;;5028247;28;20029;-69
2022/12/19 19:29:14;;;;;;;42.55;23.77;;;5.00;58.50;;;;;;5043099;28;20029;-70
2022/12/19 19:31:45;;;;;;;46.67;25.50;;;5.00;58.50;;;;;;5039467;28;20103;-74
2022/12/19 19:34:30;;;;;;;50.17;26.83;;;5.00;58.50;;;;;;5016169;28;20034;-75
2022/12/19 19:37:00;;;;;;;51.95;27.00;;;5.00;58.60;;;;;;5034099;28;20120;-73
2022/12/19 19:39:30;;;;;;;49.50;26.55;;;5.00;58.60;;;;;;5033171;28;20037;-72
2022/12/19 19:42:00;;;;;;;42.55;23.77;;;5.00;58.60;;;;;;5016116;28;20064;-73
2022/12/19 19:44:28;;;;;;;41.05;22.42;;;5.00;58.60;;;;;;5034150;28;20033;-74
2022/12/19 19:46:57;;;;;;;45.22;23.38;;;5.00;58.60;;;;;;5033638;28;20098;-71
2022/12/19 19:49:25;;;;;;;45.50;22.85;;;5.10;58.60;;;;;;5017179;28;20507;-72
2022/12/19 19:51:53;;;;;;;41.47;22.77;;;5.10;58.60;;;;;;5019522;28;20424;-76
2022/12/19 19:54:25;;;;;;;45.22;24.52;;;5.10;58.60;;;;;;5019425;28;20179;-74
2022/12/19 19:56:56;;;;;;;45.13;23.52;;;5.10;58.60;;;;;;5053093;28;20037;-74
2022/12/19 19:59:29;;;;;;;46.60;23.13;;;5.10;58.50;;;;;;5049976;28;20072;-71
2022/12/19 20:01:56;;;;;;;46.78;23.90;;;5.10;58.50;;;;;;5043777;28;20033;-72
2022/12/19 20:04:25;;;;;;;46.20;23.38;;;5.10;58.40;;;;;;5044828;28;20079;-71
2022/12/19 20:06:54;;;;;;;41.88;22.48;;;5.10;58.40;;;;;;5043956;28;20033;-76
2022/12/19 20:09:25;;;;;;;43.28;24.05;;;5.10;58.40;;;;;;5049729;28;20108;-76
2022/12/19 20:11:57;;;;;;;61.28;29.85;;;5.10;58.40;;;;;;5030345;28;20382;-74
2022/12/19 20:14:25;;;;;;;64.63;30.30;;;5.10;58.50;;;;;;5058453;28;20039;-73
2022/12/19 20:16:53;;;;;;;55.15;26.27;;;5.00;58.50;;;;;;5052890;28;20520;-76
2022/12/19 20:19:19;;;;;;;48.78;24.23;;;5.00;58.50;;;;;;5052757;28;20025;-73
2022/12/19 20:21:48;;;;;;;53.35;25.52;;;5.00;58.50;;;;;;5017589;28;20044;-75
2022/12/19 20:24:14;;;;;;;47.83;25.45;;;5.00;58.60;;;;;;5015395;28;20366;-73
2022/12/19 20:26:46;;;;;;;46.25;24.25;;;5.00;58.60;;;;;;5022334;28;20120;-73
2022/12/19 20:29:15;;;;;;;49.33;25.48;;;5.00;58.60;;;;;;5026478;28;20499;-73
2022/12/19 20:32:00;;;;;;;50.42;26.60;;;5.00;58.70;;;;;;5015505;28;20033;-72
2022/12/19 20:34:33;;;;;;;47.03;24.02;;;4.90;58.70;;;;;;5022438;28;20033;-72
2022/12/19 20:36:59;;;;;;;45.35;23.42;;;5.00;58.70;;;;;;5053168;28;20060;-72
2022/12/19 20:39:27;;;;;;;52.67;26.63;;;5.00;58.70;;;;;;5034334;28;20116;-72
2022/12/19 20:41:59;;;;;;;44.55;23.67;;;4.90;58.80;;;;;;5052472;28;20033;-72
2022/12/19 20:44:28;;;;;;;46.85;25.00;;;4.90;58.80;;;;;;5019314;28;20033;-76
2022/12/19 20:46:58;;;;;;;48.47;26.02;;;4.90;58.80;;;;;;5034971;28;20044;-74
2022/12/19 20:49:24;;;;;;;47.95;23.33;;;5.00;58.80;;;;;;5043680;28;20040;-74
2022/12/19 20:51:55;;;;;;;46.20;23.65;;;4.90;58.80;;;;;;5036858;28;20038;-73
2022/12/19 20:54:22;;;;;;;45.30;23.15;;;4.90;58.80;;;;;;5036648;28;20033;-73
2022/12/19 20:56:48;;;;;;;47.47;23.38;;;4.90;58.80;;;;;;5039116;28;20116;-75
2022/12/19 20:59:14;;;;;;;46.60;23.90;;;4.90;58.80;;;;;;5027006;28;20445;-75
2022/12/19 21:01:42;;;;;;;53.25;26.55;;;4.90;58.80;;;;;;5025453;28;20034;-73
2022/12/19 21:04:08;;;;;;;56.08;26.55;;;4.90;58.80;;;;;;5018305;28;20115;-72
2022/12/19 21:06:36;;;;;;;57.25;27.50;;;4.90;58.80;;;;;;5019182;28;20033;-72
2022/12/19 21:09:06;;;;;;;61.47;28.98;;;4.80;58.80;;;;;;5043253;28;20120;-72
2022/12/19 21:11:35;;;;;;;65.30;28.85;;;4.80;58.80;;;;;;5018896;28;20065;-76
2022/12/19 21:14:02;;;;;;;52.75;26.80;;;4.80;58.90;;;;;;5022314;28;20033;-72
2022/12/19 21:16:28;;;;;;;54.95;25.27;;;4.80;59.00;;;;;;5034684;28;20045;-73
2022/12/19 21:18:56;;;;;;;51.30;26.33;;;4.70;59.00;;;;;;5043313;28;20033;-76
2022/12/19 21:21:24;;;;;;;67.68;29.73;;;4.70;59.10;;;;;;5023253;28;20476;-76
2022/12/19 21:23:51;;;;;;;59.50;29.25;;;4.60;59.20;;;;;;5030998;28;20481;-72
2022/12/19 21:26:21;;;;;;;60.58;27.48;;;4.60;59.30;;;;;;5045846;28;20033;-71
2022/12/19 21:28:47;;;;;;;56.25;26.48;;;4.60;59.40;;;;;;5055632;28;20059;-73
2022/12/19 21:31:22;;;;;;;54.92;27.17;;;4.60;59.40;;;;;;5042618;28;20069;-72
2022/12/19 21:33:49;;;;;;;48.75;24.05;;;4.50;59.50;;;;;;5029171;28;20528;-72
2022/12/19 21:36:19;;;;;;;59.28;27.17;;;4.50;59.50;;;;;;5020332;28;20045;-74
2022/12/19 21:38:51;;;;;;;57.03;27.80;;;4.50;59.50;;;;;;5019666;28;20443;-72
2022/12/19 21:41:20;;;;;;;59.33;28.85;;;4.40;59.60;;;;;;5029607;28;20033;-73
2022/12/19 21:43:53;;;;;;;56.35;28.20;;;4.40;59.70;;;;;;5019221;28;20064;-73
2022/12/19 21:46:22;;;;;;;61.92;27.48;;;4.40;59.90;;;;;;5018149;28;20041;-73
2022/12/19 21:48:50;;;;;;;52.17;27.52;;;4.40;60.00;;;;;;5038667;28;20091;-74
2022/12/19 21:51:18;;;;;;;53.13;27.55;;;4.30;60.00;;;;;;5040716;28;20044;-73
2022/12/19 21:53:44;;;;;;;54.78;28.00;;;4.30;60.20;;;;;;5018274;28;20428;-73
2022/12/19 21:56:28;;;;;;;53.78;26.95;;;4.30;60.30;;;;;;5018431;28;20044;-73
2022/12/19 21:59:00;;;;;;;56.13;26.05;;;4.30;60.50;;;;;;5035839;28;20038;-74
2022/12/19 22:01:27;;;;;;;56.92;28.92;;;4.30;60.30;;;;;;5017659;28;20124;-73
2022/12/19 22:04:07;;;;;;;52.08;27.42;;;4.30;60.40;;;;;;5029591;28;20385;-73
2022/12/19 22:06:35;;;;;;;58.22;29.05;;;4.30;60.60;;;;;;5037870;28;20041;-73
2022/12/19 22:09:03;;;;;;;53.83;27.85;;;4.20;60.60;;;;;;5032974;28;21685;-74
2022/12/19 22:11:30;;;;;;;58.80;28.30;;;4.20;60.80;;;;;;5017905;28;20477;-73
2022/12/19 22:13:59;;;;;;;57.03;27.73;;;4.20;60.90;;;;;;5017450;28;20033;-72
2022/12/19 22:16:25;;;;;;;61.67;30.58;;;4.10;61.00;;;;;;5017685;28;20401;-71
2022/12/19 22:18:51;;;;;;;58.95;28.75;;;4.10;61.10;;;;;;5035260;28;20038;-72
2022/12/19 22:21:18;;;;;;;55.67;27.70;;;4.10;61.30;;;;;;5029062;28;20041;-72
2022/12/19 22:23:44;;;;;;;57.10;27.98;;;4.00;61.40;;;;;;5036393;28;20037;-71
2022/12/19 22:26:14;;;;;;;53.03;27.52;;;4.00;61.40;;;;;;5053527;28;20033;-71
2022/12/19 22:28:46;;;;;;;56.38;28.63;;;4.00;61.50;;;;;;5037394;28;20036;-71
2022/12/19 22:31:27;;;;;;;57.10;27.75;;;4.00;61.50;;;;;;5035304;28;20026;-72
2022/12/19 22:34:16;;;;;;;56.78;27.70;;;3.90;61.50;;;;;;5035293;28;20031;-72
2022/12/19 22:36:45;;;;;;;61.28;28.48;;;3.90;61.50;;;;;;5034303;28;20037;-72
2022/12/19 22:39:17;;;;;;;54.20;27.23;;;3.90;61.50;;;;;;5017317;28;20041;-72
2022/12/19 22:41:43;;;;;;;54.83;26.60;;;3.80;61.60;;;;;;5018206;28;20091;-72
2022/12/19 22:44:16;;;;;;;66.78;33.22;;;3.80;61.60;;;;;;5034990;28;20061;-72
2022/12/19 22:46:44;;;;;;;56.05;28.30;;;3.80;61.80;;;;;;5017168;28;20051;-72
2022/12/19 22:49:12;;;;;;;56.75;27.15;;;3.80;61.70;;;;;;5017177;28;20041;-72
2022/12/19 22:51:39;;;;;;;59.53;28.15;;;3.80;61.80;;;;;;5017352;28;20037;-72
2022/12/19 22:54:09;;;;;;;51.83;25.95;;;3.80;61.90;;;;;;5017019;28;20066;-72
2022/12/19 22:56:35;;;;;;;51.63;26.13;;;3.80;61.90;;;;;;5050310;28;20477;-72
2022/12/19 22:59:05;;;;;;;49.70;25.42;;;3.80;61.90;;;;;;5054571;28;20131;-72
2022/12/19 23:01:37;;;;;;;53.00;26.73;;;3.70;61.80;;;;;;5054755;28;20029;-72
2022/12/19 23:04:06;;;;;;;53.10;26.63;;;3.70;61.70;;;;;;5047170;28;20041;-72
2022/12/19 23:06:33;;;;;;;51.42;24.75;;;3.70;61.80;;;;;;5034624;28;20091;-72
2022/12/19 23:09:00;;;;;;;52.38;25.95;;;3.70;61.80;;;;;;5034323;28;20037;-72
2022/12/19 23:11:33;;;;;;;50.17;24.55;;;3.70;61.80;;;;;;5034884;28;20037;-72
2022/12/19 23:14:00;;;;;;;54.38;25.45;;;3.70;61.70;;;;;;5033439;28;20040;-73
2022/12/19 23:16:29;;;;;;;49.60;24.23;;;3.70;61.70;;;;;;5016684;28;20512;-72
2022/12/19 23:18:57;;;;;;;47.88;24.70;;;3.60;61.60;;;;;;5023864;28;20388;-72
2022/12/19 23:21:24;;;;;;;50.97;25.15;;;3.60;61.60;;;;;;5053961;28;20036;-73
2022/12/19 23:23:52;;;;;;;68.70;35.65;;;3.60;61.60;;;;;;5053939;28;20036;-72
2022/12/19 23:26:27;;;;;;;68.57;36.80;;;3.60;61.70;;;;;;5036280;28;20047;-72
2022/12/19 23:28:59;;;;;;;64.07;33.97;;;3.60;61.80;;;;;;5036202;28;20037;-72
2022/12/19 23:31:26;;;;;;;57.45;28.13;;;3.60;61.90;;;;;;5036255;28;20120;-73
2022/12/19 23:33:56;;;;;;;50.70;25.08;;;3.60;61.90;;;;;;5054116;28;20167;-72
2022/12/19 23:36:23;;;;;;;51.30;24.88;;;3.60;62.00;;;;;;5053700;28;20037;-72
2022/12/19 23:38:52;;;;;;;65.60;29.42;;;3.70;62.10;;;;;;5053104;28;20040;-72
2022/12/19 23:41:21;;;;;;;88.07;37.13;;;3.70;62.20;;;;;;5036047;28;20362;-72
2022/12/19 23:43:47;;;;;;;77.57;32.40;;;3.70;62.20;;;;;;5034350;28;20045;-72
2022/12/19 23:46:18;;;;;;;77.93;33.58;;;3.80;62.30;;;;;;5053761;28;20037;-73
2022/12/19 23:48:44;;;;;;;64.55;30.45;;;3.80;62.30;;;;;;5035854;28;20028;-72
2022/12/19 23:51:23;;;;;;;63.70;28.88;;;3.90;62.20;;;;;;5034123;28;20484;-72
2022/12/19 23:53:50;;;;;;;57.70;29.52;;;3.90;62.00;;;;;;5035923;28;20045;-72
2022/12/19 23:56:24;;;;;;;54.85;27.95;;;3.90;61.80;;;;;;5036051;28;20127;-72